sensor_id;sensor_type;location;lat;lon;timestamp;pressure;altitude;pressure_sealevel;temperature;humidity
64158;BME280;50449;51.528;5.076;2023-03-18T00:01:22;100666.84;;;17.90;54.83
64158;BME280;50449;51.528;5.076;2023-03-18T00:03:48;100664.41;;;17.89;54.89
64158;BME280;50449;51.528;5.076;2023-03-18T00:06:15;100660.88;;;17.88;54.80
64158;BME280;50449;51.528;5.076;2023-03-18T00:08:42;100668.31;;;17.83;55.03
64158;BME280;50449;51.528;5.076;2023-03-18T00:11:10;100666.41;;;17.83;54.64
64158;BME280;50449;51.528;5.076;2023-03-18T00:13:37;100669.72;;;17.80;54.79
64158;BME280;50449;51.528;5.076;2023-03-18T00:16:04;100673.25;;;17.81;54.59
64158;BME280;50449;51.528;5.076;2023-03-18T00:18:31;100666.97;;;17.80;54.53
64158;BME280;50449;51.528;5.076;2023-03-18T00:20:57;100669.72;;;17.80;54.61
64158;BME280;50449;51.528;5.076;2023-03-18T00:23:23;100660.97;;;17.78;54.58
64158;BME280;50449;51.528;5.076;2023-03-18T00:25:51;100665.34;;;17.79;54.61
64158;BME280;50449;51.528;5.076;2023-03-18T00:28:17;100668.34;;;17.78;55.02
64158;BME280;50449;51.528;5.076;2023-03-18T00:30:42;100674.94;;;17.77;55.00
64158;BME280;50449;51.528;5.076;2023-03-18T00:33:09;100673.28;;;17.76;54.59
64158;BME280;50449;51.528;5.076;2023-03-18T00:35:35;100678.75;;;17.76;54.56
64158;BME280;50449;51.528;5.076;2023-03-18T00:38:02;100685.34;;;17.74;54.66
64158;BME280;50449;51.528;5.076;2023-03-18T00:40:28;100680.97;;;17.73;54.57
64158;BME280;50449;51.528;5.076;2023-03-18T00:43:08;100684.00;;;17.72;54.55
64158;BME280;50449;51.528;5.076;2023-03-18T00:45:38;100688.66;;;17.71;54.63
64158;BME280;50449;51.528;5.076;2023-03-18T00:48:04;100687.00;;;17.70;54.87
64158;BME280;50449;51.528;5.076;2023-03-18T00:50:32;100678.00;;;17.70;55.02
64158;BME280;50449;51.528;5.076;2023-03-18T00:52:57;100680.22;;;17.68;54.91
64158;BME280;50449;51.528;5.076;2023-03-18T00:55:23;100691.16;;;17.68;54.84
64158;BME280;50449;51.528;5.076;2023-03-18T00:57:50;100680.50;;;17.66;54.75
64158;BME280;50449;51.528;5.076;2023-03-18T01:00:16;100687.88;;;17.66;54.46
64158;BME280;50449;51.528;5.076;2023-03-18T01:02:43;100686.28;;;17.65;54.90
64158;BME280;50449;51.528;5.076;2023-03-18T01:05:11;100682.72;;;17.64;54.87
64158;BME280;50449;51.528;5.076;2023-03-18T01:07:37;100678.34;;;17.63;54.59
64158;BME280;50449;51.528;5.076;2023-03-18T01:10:03;100688.47;;;17.63;55.03
64158;BME280;50449;51.528;5.076;2023-03-18T01:12:29;100680.56;;;17.61;55.07
64158;BME280;50449;51.528;5.076;2023-03-18T01:14:54;100674.59;;;17.59;55.09
64158;BME280;50449;51.528;5.076;2023-03-18T01:17:20;100677.34;;;17.59;54.54
64158;BME280;50449;51.528;5.076;2023-03-18T01:19:46;100672.94;;;17.58;54.50
64158;BME280;50449;51.528;5.076;2023-03-18T01:22:13;100681.47;;;17.57;54.54
64158;BME280;50449;51.528;5.076;2023-03-18T01:24:39;100676.28;;;17.55;54.85
64158;BME280;50449;51.528;5.076;2023-03-18T01:27:04;100675.47;;;17.55;55.01
64158;BME280;50449;51.528;5.076;2023-03-18T01:29:30;100676.56;;;17.53;54.73
64158;BME280;50449;51.528;5.076;2023-03-18T01:31:55;100667.56;;;17.53;54.83
64158;BME280;50449;51.528;5.076;2023-03-18T01:34:21;100667.84;;;17.51;54.42
64158;BME280;50449;51.528;5.076;2023-03-18T01:36:47;100668.94;;;17.50;54.84
64158;BME280;50449;51.528;5.076;2023-03-18T01:39:14;100672.47;;;17.51;54.74
64158;BME280;50449;51.528;5.076;2023-03-18T01:41:40;100672.00;;;17.49;55.03
64158;BME280;50449;51.528;5.076;2023-03-18T01:44:12;100666.81;;;17.47;54.72
64158;BME280;50449;51.528;5.076;2023-03-18T01:46:38;100670.34;;;17.48;54.73
64158;BME280;50449;51.528;5.076;2023-03-18T01:49:21;100673.66;;;17.45;54.75
64158;BME280;50449;51.528;5.076;2023-03-18T01:51:54;100673.94;;;17.43;54.58
64158;BME280;50449;51.528;5.076;2023-03-18T01:54:23;100678.59;;;17.43;54.84
64158;BME280;50449;51.528;5.076;2023-03-18T01:56:49;100681.63;;;17.41;54.62
64158;BME280;50449;51.528;5.076;2023-03-18T01:59:17;100686.25;;;17.41;54.62
64158;BME280;50449;51.528;5.076;2023-03-18T02:02:03;100676.72;;;17.38;54.77
64158;BME280;50449;51.528;5.076;2023-03-18T02:04:37;100689.56;;;17.38;55.18
64158;BME280;50449;51.528;5.076;2023-03-18T02:07:04;100679.75;;;17.37;55.01
64158;BME280;50449;51.528;5.076;2023-03-18T02:09:32;100681.97;;;17.35;55.10
64158;BME280;50449;51.528;5.076;2023-03-18T02:12:00;100686.31;;;17.36;54.82
64158;BME280;50449;51.528;5.076;2023-03-18T02:14:26;100682.78;;;17.35;54.71
64158;BME280;50449;51.528;5.076;2023-03-18T02:16:59;100686.63;;;17.34;55.01
64158;BME280;50449;51.528;5.076;2023-03-18T02:22:29;100682.81;;;17.30;54.85
64158;BME280;50449;51.528;5.076;2023-03-18T02:27:53;100689.97;;;17.26;54.60
64158;BME280;50449;51.528;5.076;2023-03-18T02:30:25;100696.25;;;17.26;54.55
64158;BME280;50449;51.528;5.076;2023-03-18T02:32:51;100701.72;;;17.26;54.66
64158;BME280;50449;51.528;5.076;2023-03-18T02:35:18;100695.41;;;17.26;55.09
64158;BME280;50449;51.528;5.076;2023-03-18T02:37:44;100699.25;;;17.25;54.52
64158;BME280;50449;51.528;5.076;2023-03-18T02:40:24;100700.66;;;17.22;54.66
64158;BME280;50449;51.528;5.076;2023-03-18T02:42:50;100704.19;;;17.23;54.80
64158;BME280;50449;51.528;5.076;2023-03-18T02:45:42;100704.78;;;17.20;54.83
64158;BME280;50449;51.528;5.076;2023-03-18T02:48:10;100706.13;;;17.22;55.00
64158;BME280;50449;51.528;5.076;2023-03-18T02:50:38;100707.50;;;17.20;55.08
64158;BME280;50449;51.528;5.076;2023-03-18T02:53:04;100703.16;;;17.19;54.97
64158;BME280;50449;51.528;5.076;2023-03-18T02:55:30;100709.44;;;17.19;54.67
64158;BME280;50449;51.528;5.076;2023-03-18T02:57:55;100714.06;;;17.19;54.92
64158;BME280;50449;51.528;5.076;2023-03-18T03:00:21;100718.69;;;17.18;54.85
64158;BME280;50449;51.528;5.076;2023-03-18T03:02:47;100719.81;;;17.17;54.75
64158;BME280;50449;51.528;5.076;2023-03-18T03:05:12;100723.66;;;17.16;55.24
64158;BME280;50449;51.528;5.076;2023-03-18T03:07:38;100720.09;;;17.16;54.66
64158;BME280;50449;51.528;5.076;2023-03-18T03:10:05;100721.19;;;17.15;54.96
64158;BME280;50449;51.528;5.076;2023-03-18T03:12:31;100734.03;;;17.14;54.68
64158;BME280;50449;51.528;5.076;2023-03-18T03:14:56;100738.69;;;17.14;55.08
64158;BME280;50449;51.528;5.076;2023-03-18T03:17:21;100736.22;;;17.12;55.10
64158;BME280;50449;51.528;5.076;2023-03-18T03:19:47;100732.69;;;17.12;54.99
64158;BME280;50449;51.528;5.076;2023-03-18T03:22:12;100736.50;;;17.11;54.65
64158;BME280;50449;51.528;5.076;2023-03-18T03:24:38;100735.69;;;17.10;55.00
64158;BME280;50449;51.528;5.076;2023-03-18T03:27:04;100739.25;;;17.11;54.89
64158;BME280;50449;51.528;5.076;2023-03-18T03:29:30;100739.53;;;17.09;55.03
64158;BME280;50449;51.528;5.076;2023-03-18T03:31:55;100739.81;;;17.07;55.02
64158;BME280;50449;51.528;5.076;2023-03-18T03:34:20;100731.63;;;17.07;54.98
64158;BME280;50449;51.528;5.076;2023-03-18T03:36:46;100740.13;;;17.06;55.01
64158;BME280;50449;51.528;5.076;2023-03-18T03:39:11;100744.75;;;17.05;55.04
64158;BME280;50449;51.528;5.076;2023-03-18T03:41:37;100740.41;;;17.04;54.87
64158;BME280;50449;51.528;5.076;2023-03-18T03:44:02;100728.66;;;17.04;54.85
64158;BME280;50449;51.528;5.076;2023-03-18T03:46:28;100734.41;;;17.02;54.68
64158;BME280;50449;51.528;5.076;2023-03-18T03:48:53;100730.06;;;17.01;54.68
64158;BME280;50449;51.528;5.076;2023-03-18T03:51:19;100740.13;;;17.01;55.01
64158;BME280;50449;51.528;5.076;2023-03-18T03:53:44;100740.13;;;17.01;54.98
64158;BME280;50449;51.528;5.076;2023-03-18T03:56:10;100734.16;;;16.99;55.13
64158;BME280;50449;51.528;5.076;2023-03-18T03:58:35;100736.91;;;16.99;55.19
64158;BME280;50449;51.528;5.076;2023-03-18T04:01:01;100739.91;;;16.97;55.27
64158;BME280;50449;51.528;5.076;2023-03-18T04:03:26;100737.97;;;16.98;55.33
64158;BME280;50449;51.528;5.076;2023-03-18T04:05:53;100740.19;;;16.96;54.80
64158;BME280;50449;51.528;5.076;2023-03-18T04:08:18;100744.81;;;16.95;55.08
64158;BME280;50449;51.528;5.076;2023-03-18T04:10:44;100748.38;;;16.96;54.90
64158;BME280;50449;51.528;5.076;2023-03-18T04:13:09;100749.75;;;16.93;54.95
64158;BME280;50449;51.528;5.076;2023-03-18T04:15:35;100745.13;;;16.94;54.99
64158;BME280;50449;51.528;5.076;2023-03-18T04:18:01;100748.13;;;16.92;54.91
64158;BME280;50449;51.528;5.076;2023-03-18T04:20:34;100747.31;;;16.92;54.79
64158;BME280;50449;51.528;5.076;2023-03-18T04:23:00;100754.69;;;16.91;55.04
64158;BME280;50449;51.528;5.076;2023-03-18T04:25:27;100757.69;;;16.90;54.93
64158;BME280;50449;51.528;5.076;2023-03-18T04:27:52;100768.63;;;16.90;54.79
64158;BME280;50449;51.528;5.076;2023-03-18T04:30:18;100768.88;;;16.88;54.89
64158;BME280;50449;51.528;5.076;2023-03-18T04:32:45;100771.09;;;16.86;55.22
64158;BME280;50449;51.528;5.076;2023-03-18T04:35:10;100791.81;;;16.87;55.04
64158;BME280;50449;51.528;5.076;2023-03-18T04:37:36;100784.75;;;16.86;55.01
64158;BME280;50449;51.528;5.076;2023-03-18T04:40:03;100768.66;;;16.84;55.36
64158;BME280;50449;51.528;5.076;2023-03-18T04:42:32;100781.47;;;16.84;54.90
64158;BME280;50449;51.528;5.076;2023-03-18T04:44:57;100786.13;;;16.83;55.37
64158;BME280;50449;51.528;5.076;2023-03-18T04:47:23;100784.47;;;16.82;55.05
64158;BME280;50449;51.528;5.076;2023-03-18T04:49:48;100778.22;;;16.82;54.98
64158;BME280;50449;51.528;5.076;2023-03-18T04:52:14;100782.88;;;16.81;54.89
64158;BME280;50449;51.528;5.076;2023-03-18T04:54:40;100778.50;;;16.80;54.97
64158;BME280;50449;51.528;5.076;2023-03-18T04:57:07;100780.72;;;16.78;55.28
64158;BME280;50449;51.528;5.076;2023-03-18T04:59:32;100788.91;;;16.78;55.23
64158;BME280;50449;51.528;5.076;2023-03-18T05:01:57;100791.88;;;16.77;55.02
64158;BME280;50449;51.528;5.076;2023-03-18T05:04:24;100793.50;;;16.78;55.04
64158;BME280;50449;51.528;5.076;2023-03-18T05:06:50;100795.41;;;16.77;55.45
64158;BME280;50449;51.528;5.076;2023-03-18T05:09:18;100783.94;;;16.75;55.11
64158;BME280;50449;51.528;5.076;2023-03-18T05:11:44;100785.06;;;16.74;55.17
64158;BME280;50449;51.528;5.076;2023-03-18T05:14:09;100788.59;;;16.75;55.24
64158;BME280;50449;51.528;5.076;2023-03-18T05:16:35;100786.16;;;16.73;55.00
64158;BME280;50449;51.528;5.076;2023-03-18T05:19:01;100781.78;;;16.72;54.99
64158;BME280;50449;51.528;5.076;2023-03-18T05:21:26;100787.25;;;16.72;55.32
64158;BME280;50449;51.528;5.076;2023-03-18T05:23:52;100782.91;;;16.71;54.66
64158;BME280;50449;51.528;5.076;2023-03-18T05:26:17;100782.09;;;16.71;55.09
64158;BME280;50449;51.528;5.076;2023-03-18T05:28:43;100776.66;;;16.71;55.35
64158;BME280;50449;51.528;5.076;2023-03-18T05:31:08;100775.81;;;16.70;55.19
64158;BME280;50449;51.528;5.076;2023-03-18T05:33:33;100779.63;;;16.69;55.00
64158;BME280;50449;51.528;5.076;2023-03-18T05:36:00;100792.47;;;16.69;55.02
64158;BME280;50449;51.528;5.076;2023-03-18T05:38:25;100788.91;;;16.68;55.14
64158;BME280;50449;51.528;5.076;2023-03-18T05:40:51;100786.47;;;16.66;55.08
64158;BME280;50449;51.528;5.076;2023-03-18T05:43:17;100794.66;;;16.66;54.84
64158;BME280;50449;51.528;5.076;2023-03-18T05:45:42;100799.31;;;16.66;55.21
64158;BME280;50449;51.528;5.076;2023-03-18T05:48:08;100800.38;;;16.65;55.18
64158;BME280;50449;51.528;5.076;2023-03-18T05:50:40;100796.84;;;16.64;55.28
64158;BME280;50449;51.528;5.076;2023-03-18T05:53:06;100813.22;;;16.64;55.38
64158;BME280;50449;51.528;5.076;2023-03-18T05:55:33;100808.88;;;16.63;54.89
64158;BME280;50449;51.528;5.076;2023-03-18T05:57:59;100818.13;;;16.62;55.36
64158;BME280;50449;51.528;5.076;2023-03-18T06:00:25;100822.78;;;16.62;55.36
64158;BME280;50449;51.528;5.076;2023-03-18T06:02:53;100819.22;;;16.61;55.19
64158;BME280;50449;51.528;5.076;2023-03-18T06:05:20;100816.50;;;16.61;55.32
64158;BME280;50449;51.528;5.076;2023-03-18T06:07:46;100818.69;;;16.59;55.18
64158;BME280;50449;51.528;5.076;2023-03-18T06:10:13;100810.50;;;16.59;55.38
64158;BME280;50449;51.528;5.076;2023-03-18T06:12:39;100818.16;;;16.57;55.12
64158;BME280;50449;51.528;5.076;2023-03-18T06:15:07;100823.59;;;16.57;55.04
64158;BME280;50449;51.528;5.076;2023-03-18T06:17:33;100827.44;;;16.56;55.06
64158;BME280;50449;51.528;5.076;2023-03-18T06:19:59;100822.25;;;16.55;55.29
64158;BME280;50449;51.528;5.076;2023-03-18T06:22:25;100823.38;;;16.54;54.93
64158;BME280;50449;51.528;5.076;2023-03-18T06:24:51;100822.56;;;16.53;55.23
64158;BME280;50449;51.528;5.076;2023-03-18T06:27:16;100822.56;;;16.53;55.13
64158;BME280;50449;51.528;5.076;2023-03-18T06:29:42;100821.72;;;16.53;55.40
64158;BME280;50449;51.528;5.076;2023-03-18T06:32:08;100824.75;;;16.51;54.87
64158;BME280;50449;51.528;5.076;2023-03-18T06:34:34;100826.66;;;16.51;55.03
64158;BME280;50449;51.528;5.076;2023-03-18T06:37:00;100832.38;;;16.49;55.18
64158;BME280;50449;51.528;5.076;2023-03-18T06:39:26;100831.56;;;16.49;55.29
64158;BME280;50449;51.528;5.076;2023-03-18T06:41:55;100835.38;;;16.48;55.06
64158;BME280;50449;51.528;5.076;2023-03-18T06:44:21;100841.66;;;16.48;55.46
64158;BME280;50449;51.528;5.076;2023-03-18T06:46:47;100839.22;;;16.47;55.08
64158;BME280;50449;51.528;5.076;2023-03-18T06:49:13;100851.22;;;16.46;55.35
64158;BME280;50449;51.528;5.076;2023-03-18T06:51:39;100847.66;;;16.45;55.28
64158;BME280;50449;51.528;5.076;2023-03-18T06:54:04;100852.31;;;16.44;54.94
64158;BME280;50449;51.528;5.076;2023-03-18T06:56:30;100851.75;;;16.42;54.98
64158;BME280;50449;51.528;5.076;2023-03-18T06:58:58;100848.22;;;16.42;55.31
64158;BME280;50449;51.528;5.076;2023-03-18T07:01:24;100855.59;;;16.41;55.02
64158;BME280;50449;51.528;5.076;2023-03-18T07:03:49;100860.22;;;16.41;54.93
64158;BME280;50449;51.528;5.076;2023-03-18T07:06:16;100867.59;;;16.40;55.08
64158;BME280;50449;51.528;5.076;2023-03-18T07:08:42;100859.69;;;16.39;55.18
64158;BME280;50449;51.528;5.076;2023-03-18T07:11:09;100861.59;;;16.38;55.37
64158;BME280;50449;51.528;5.076;2023-03-18T07:13:37;100865.41;;;16.37;55.02
64158;BME280;50449;51.528;5.076;2023-03-18T07:16:03;100871.97;;;16.36;55.10
64158;BME280;50449;51.528;5.076;2023-03-18T07:18:29;100873.03;;;16.35;54.94
64158;BME280;50449;51.528;5.076;2023-03-18T07:20:54;100876.88;;;16.34;55.05
64158;BME280;50449;51.528;5.076;2023-03-18T07:23:20;100875.25;;;16.33;55.52
64158;BME280;50449;51.528;5.076;2023-03-18T07:25:46;100880.72;;;16.33;55.47
64158;BME280;50449;51.528;5.076;2023-03-18T07:28:11;100874.72;;;16.31;55.30
64158;BME280;50449;51.528;5.076;2023-03-18T07:30:37;100883.16;;;16.30;55.17
64158;BME280;50449;51.528;5.076;2023-03-18T07:33:03;100881.53;;;16.29;55.05
64158;BME280;50449;51.528;5.076;2023-03-18T07:35:29;100887.00;;;16.29;55.39
64158;BME280;50449;51.528;5.076;2023-03-18T07:37:55;100888.06;;;16.28;54.91
64158;BME280;50449;51.528;5.076;2023-03-18T07:40:21;100887.25;;;16.27;55.06
64158;BME280;50449;51.528;5.076;2023-03-18T07:42:46;100893.00;;;16.26;55.40
64158;BME280;50449;51.528;5.076;2023-03-18T07:45:12;100899.25;;;16.26;55.56
64158;BME280;50449;51.528;5.076;2023-03-18T07:47:37;100893.81;;;16.26;55.18
64158;BME280;50449;51.528;5.076;2023-03-18T07:50:04;100896.53;;;16.26;55.06
64158;BME280;50449;51.528;5.076;2023-03-18T07:52:30;100899.25;;;16.26;55.24
64158;BME280;50449;51.528;5.076;2023-03-18T07:54:56;100893.00;;;16.26;55.45
64158;BME280;50449;51.528;5.076;2023-03-18T07:57:21;100887.00;;;16.23;55.26
64158;BME280;50449;51.528;5.076;2023-03-18T07:59:47;100888.91;;;16.23;55.42
64158;BME280;50449;51.528;5.076;2023-03-18T08:02:13;100887.00;;;16.23;55.57
64158;BME280;50449;51.528;5.076;2023-03-18T08:04:41;100892.44;;;16.23;55.27
64158;BME280;50449;51.528;5.076;2023-03-18T08:07:07;100890.53;;;16.24;55.20
64158;BME280;50449;51.528;5.076;2023-03-18T08:09:33;100887.00;;;16.23;55.42
64158;BME280;50449;51.528;5.076;2023-03-18T08:11:58;100894.38;;;16.23;55.07
64158;BME280;50449;51.528;5.076;2023-03-18T08:14:24;100894.38;;;16.23;55.27
64158;BME280;50449;51.528;5.076;2023-03-18T08:16:50;100882.38;;;16.24;55.47
64158;BME280;50449;51.528;5.076;2023-03-18T08:19:15;100880.19;;;16.26;55.22
64158;BME280;50449;51.528;5.076;2023-03-18T08:21:40;100883.97;;;16.25;55.29
64158;BME280;50449;51.528;5.076;2023-03-18T08:24:07;100879.63;;;16.24;55.36
64158;BME280;50449;51.528;5.076;2023-03-18T08:26:34;100890.28;;;16.26;55.32
64158;BME280;50449;51.528;5.076;2023-03-18T08:29:00;100890.28;;;16.26;55.07
64158;BME280;50449;51.528;5.076;2023-03-18T08:31:25;100893.81;;;16.26;55.21
64158;BME280;50449;51.528;5.076;2023-03-18T08:33:50;100888.34;;;16.26;54.92
64158;BME280;50449;51.528;5.076;2023-03-18T08:36:18;100896.53;;;16.26;55.29
64158;BME280;50449;51.528;5.076;2023-03-18T08:38:44;100895.44;;;16.27;55.06
64158;BME280;50449;51.528;5.076;2023-03-18T08:41:09;100899.81;;;16.28;55.47
64158;BME280;50449;51.528;5.076;2023-03-18T08:43:35;100900.63;;;16.29;55.30
64158;BME280;50449;51.528;5.076;2023-03-18T08:46:00;100901.16;;;16.31;55.37
64158;BME280;50449;51.528;5.076;2023-03-18T08:48:26;100910.16;;;16.31;55.17
64158;BME280;50449;51.528;5.076;2023-03-18T08:50:52;100906.06;;;16.34;55.47
64158;BME280;50449;51.528;5.076;2023-03-18T08:53:18;100907.97;;;16.33;55.31
64158;BME280;50449;51.528;5.076;2023-03-18T08:55:43;100912.06;;;16.36;55.17
64158;BME280;50449;51.528;5.076;2023-03-18T08:58:09;100917.22;;;16.37;55.29
64158;BME280;50449;51.528;5.076;2023-03-18T09:00:37;100913.41;;;16.38;55.23
64158;BME280;50449;51.528;5.076;2023-03-18T09:03:04;100918.84;;;16.38;55.19
64158;BME280;50449;51.528;5.076;2023-03-18T09:05:30;100919.66;;;16.39;55.28
64158;BME280;50449;51.528;5.076;2023-03-18T09:07:57;100919.41;;;16.40;55.44
64158;BME280;50449;51.528;5.076;2023-03-18T09:10:23;100912.84;;;16.41;55.08
64158;BME280;50449;51.528;5.076;2023-03-18T09:12:49;100920.75;;;16.43;55.18
64158;BME280;50449;51.528;5.076;2023-03-18T09:15:15;100919.91;;;16.42;55.42
64158;BME280;50449;51.528;5.076;2023-03-18T09:17:41;100918.53;;;16.45;55.27
64158;BME280;50449;51.528;5.076;2023-03-18T09:20:09;100918.28;;;16.47;55.31
64158;BME280;50449;51.528;5.076;2023-03-18T09:22:37;100913.38;;;16.49;55.59
64158;BME280;50449;51.528;5.076;2023-03-18T09:25:02;100913.06;;;16.50;55.43
64158;BME280;50449;51.528;5.076;2023-03-18T09:27:28;100917.44;;;16.51;55.30
64158;BME280;50449;51.528;5.076;2023-03-18T09:29:53;100918.81;;;16.54;55.19
64158;BME280;50449;51.528;5.076;2023-03-18T09:32:20;100916.63;;;16.56;55.45
64158;BME280;50449;51.528;5.076;2023-03-18T09:34:46;100917.13;;;16.58;55.14
64158;BME280;50449;51.528;5.076;2023-03-18T09:37:11;100904.34;;;16.58;55.72
64158;BME280;50449;51.528;5.076;2023-03-18T09:39:39;100896.66;;;16.60;55.58
64158;BME280;50449;51.528;5.076;2023-03-18T09:44:42;100901.59;;;16.63;55.50
64158;BME280;50449;51.528;5.076;2023-03-18T09:50:35;100901.59;;;16.63;55.89
64158;BME280;50449;51.528;5.076;2023-03-18T09:53:54;100905.41;;;16.62;55.64
64158;BME280;50449;51.528;5.076;2023-03-18T09:56:25;100905.66;;;16.66;55.78
64158;BME280;50449;51.528;5.076;2023-03-18T09:58:59;100907.03;;;16.69;55.80
64158;BME280;50449;51.528;5.076;2023-03-18T10:01:28;100907.25;;;16.72;55.57
64158;BME280;50449;51.528;5.076;2023-03-18T10:04:13;100908.91;;;16.73;55.59
64158;BME280;50449;51.528;5.076;2023-03-18T10:06:43;100919.25;;;16.76;56.05
64158;BME280;50449;51.528;5.076;2023-03-18T10:09:18;100921.72;;;16.78;55.69
64158;BME280;50449;51.528;5.076;2023-03-18T10:11:49;100932.09;;;16.81;55.97
64158;BME280;50449;51.528;5.076;2023-03-18T10:19:50;100915.97;;;16.84;55.92
64158;BME280;50449;51.528;5.076;2023-03-18T10:28:08;100913.22;;;16.90;55.91
64158;BME280;50449;51.528;5.076;2023-03-18T10:30:57;100918.09;;;16.93;55.77
64158;BME280;50449;51.528;5.076;2023-03-18T10:33:45;100915.91;;;16.95;56.07
64158;BME280;50449;51.528;5.076;2023-03-18T10:36:18;100913.72;;;16.97;55.76
64158;BME280;50449;51.528;5.076;2023-03-18T10:38:49;100912.91;;;17.01;55.67
64158;BME280;50449;51.528;5.076;2023-03-18T10:41:31;100914.25;;;17.04;55.66
64158;BME280;50449;51.528;5.076;2023-03-18T10:44:05;100918.31;;;17.06;56.14
64158;BME280;50449;51.528;5.076;2023-03-18T10:46:40;100917.75;;;17.09;56.19
64158;BME280;50449;51.528;5.076;2023-03-18T10:49:15;100926.47;;;17.12;55.65
64158;BME280;50449;51.528;5.076;2023-03-18T10:51:50;100919.63;;;17.14;55.90
64158;BME280;50449;51.528;5.076;2023-03-18T10:54:26;100918.53;;;17.15;55.81
64158;BME280;50449;51.528;5.076;2023-03-18T10:56:55;100915.22;;;17.18;56.05
64158;BME280;50449;51.528;5.076;2023-03-18T10:59:22;100923.97;;;17.20;55.50
64158;BME280;50449;51.528;5.076;2023-03-18T11:02:19;100921.22;;;17.20;56.21
64158;BME280;50449;51.528;5.076;2023-03-18T11:05:00;100917.94;;;17.23;55.99
64158;BME280;50449;51.528;5.076;2023-03-18T11:07:28;100931.31;;;17.25;55.59
64158;BME280;50449;51.528;5.076;2023-03-18T11:10:10;100930.19;;;17.26;55.94
64158;BME280;50449;51.528;5.076;2023-03-18T11:12:36;100936.72;;;17.30;55.93
64158;BME280;50449;51.528;5.076;2023-03-18T11:15:06;100931.81;;;17.32;55.94
64158;BME280;50449;51.528;5.076;2023-03-18T11:17:36;100924.16;;;17.34;55.97
64158;BME280;50449;51.528;5.076;2023-03-18T11:20:04;100927.41;;;17.36;55.98
64158;BME280;50449;51.528;5.076;2023-03-18T11:22:33;100931.50;;;17.39;55.86
64158;BME280;50449;51.528;5.076;2023-03-18T11:25:16;100924.13;;;17.39;55.83
64158;BME280;50449;51.528;5.076;2023-03-18T11:27:47;100927.91;;;17.43;56.25
64158;BME280;50449;51.528;5.076;2023-03-18T11:30:24;100933.34;;;17.43;55.86
64158;BME280;50449;51.528;5.076;2023-03-18T11:35:22;100932.50;;;17.48;55.79
64158;BME280;50449;51.528;5.076;2023-03-18T11:37:48;100934.97;;;17.49;56.10
64158;BME280;50449;51.528;5.076;2023-03-18T11:40:17;100939.84;;;17.52;55.87
64158;BME280;50449;51.528;5.076;2023-03-18T11:42:47;100941.47;;;17.53;55.76
64158;BME280;50449;51.528;5.076;2023-03-18T11:45:28;100943.94;;;17.55;56.26
64158;BME280;50449;51.528;5.076;2023-03-18T11:47:56;100939.81;;;17.58;55.89
64158;BME280;50449;51.528;5.076;2023-03-18T11:50:26;100940.34;;;17.60;56.00
64158;BME280;50449;51.528;5.076;2023-03-18T11:53:19;100943.63;;;17.62;55.79
64158;BME280;50449;51.528;5.076;2023-03-18T11:56:00;100956.44;;;17.61;56.24
64158;BME280;50449;51.528;5.076;2023-03-18T12:02:05;100958.66;;;17.59;56.62
64158;BME280;50449;51.528;5.076;2023-03-18T12:12:40;100946.84;;;17.69;56.32
64158;BME280;50449;51.528;5.076;2023-03-18T12:18:02;100950.91;;;17.71;56.13
64158;BME280;50449;51.528;5.076;2023-03-18T12:26:06;100946.81;;;17.74;56.36
64158;BME280;50449;51.528;5.076;2023-03-18T12:40:11;100949.22;;;17.81;56.26
64158;BME280;50449;51.528;5.076;2023-03-18T12:42:54;100953.06;;;17.80;56.50
64158;BME280;50449;51.528;5.076;2023-03-18T12:45:29;100950.28;;;17.85;56.44
64158;BME280;50449;51.528;5.076;2023-03-18T12:48:08;100943.72;;;17.86;56.65
64158;BME280;50449;51.528;5.076;2023-03-18T12:50:55;100938.56;;;17.84;56.51
64158;BME280;50449;51.528;5.076;2023-03-18T12:53:29;100940.69;;;17.87;56.37
64158;BME280;50449;51.528;5.076;2023-03-18T12:56:01;100939.31;;;17.90;56.56
64158;BME280;50449;51.528;5.076;2023-03-18T12:58:31;100930.81;;;17.91;56.72
64158;BME280;50449;51.528;5.076;2023-03-18T13:01:05;100925.06;;;17.93;56.60
64158;BME280;50449;51.528;5.076;2023-03-18T13:03:40;100925.88;;;17.93;56.37
64158;BME280;50449;51.528;5.076;2023-03-18T13:06:14;100928.34;;;17.95;56.64
64158;BME280;50449;51.528;5.076;2023-03-18T13:17:16;100919.84;;;17.97;56.77
64158;BME280;50449;51.528;5.076;2023-03-18T13:19:44;100922.00;;;18.00;56.53
64158;BME280;50449;51.528;5.076;2023-03-18T13:35:51;100921.16;;;18.04;56.82
64158;BME280;50449;51.528;5.076;2023-03-18T13:43:58;100912.59;;;18.11;57.07
64158;BME280;50449;51.528;5.076;2023-03-18T13:46:27;100918.59;;;18.13;56.94
64158;BME280;50449;51.528;5.076;2023-03-18T13:48:59;100918.31;;;18.14;56.67
64158;BME280;50449;51.528;5.076;2023-03-18T13:53:57;100913.06;;;18.18;56.91
64158;BME280;50449;51.528;5.076;2023-03-18T13:56:48;100904.88;;;18.18;57.02
64158;BME280;50449;51.528;5.076;2023-03-18T14:02:29;100907.00;;;18.21;56.58
64158;BME280;50449;51.528;5.076;2023-03-18T14:04:56;100897.41;;;18.24;56.40
64158;BME280;50449;51.528;5.076;2023-03-18T14:07:23;100885.41;;;18.25;56.32
64158;BME280;50449;51.528;5.076;2023-03-18T14:14:56;100885.34;;;18.30;56.71
64158;BME280;50449;51.528;5.076;2023-03-18T14:17:37;100887.75;;;18.31;56.51
64158;BME280;50449;51.528;5.076;2023-03-18T14:22:48;100884.47;;;18.34;56.33
64158;BME280;50449;51.528;5.076;2023-03-18T14:33:14;100862.59;;;18.34;56.79
64158;BME280;50449;51.528;5.076;2023-03-18T14:36:26;100875.94;;;18.36;56.47
64158;BME280;50449;51.528;5.076;2023-03-18T14:39:01;100873.47;;;18.40;56.14
64158;BME280;50449;51.528;5.076;2023-03-18T14:41:29;100877.81;;;18.41;56.10
64158;BME280;50449;51.528;5.076;2023-03-18T14:46:49;100857.28;;;18.43;56.05